createdAt,value
2017-11-28T00:00:54.181Z,52.61
2017-11-28T00:01:54.169Z,52.70
2017-11-28T00:02:54.154Z,52.32
2017-11-28T00:03:54.141Z,52.22
2017-11-28T00:04:54.127Z,52.61
2017-11-28T00:05:54.112Z,52.51
2017-11-28T00:06:54.098Z,51.93
2017-11-28T00:07:54.083Z,52.32
2017-11-28T00:08:54.070Z,52.12
2017-11-28T00:09:54.056Z,52.32
2017-11-28T00:10:54.040Z,52.12
2017-11-28T00:11:54.027Z,52.12
2017-11-28T00:12:54.013Z,52.42
2017-11-28T00:13:54.003Z,52.42
2017-11-28T00:14:53.989Z,52.32
2017-11-28T00:15:53.971Z,52.42
2017-11-28T00:16:53.958Z,52.51
2017-11-28T00:17:53.946Z,52.32
2017-11-28T00:18:53.928Z,52.42
2017-11-28T00:19:53.919Z,52.61
2017-11-28T00:20:53.902Z,52.51
2017-11-28T00:21:53.888Z,52.42
2017-11-28T00:22:53.873Z,52.32
2017-11-28T00:23:53.859Z,52.42
2017-11-28T00:24:53.845Z,52.42
2017-11-28T00:25:53.832Z,52.61
2017-11-28T00:26:53.817Z,52.61
2017-11-28T00:27:53.802Z,52.61
2017-11-28T00:28:53.789Z,52.61
2017-11-28T00:29:53.778Z,52.61
2017-11-28T00:30:53.761Z,52.70
2017-11-28T00:31:53.746Z,52.70
2017-11-28T00:32:53.733Z,52.70
2017-11-28T00:33:53.718Z,52.51
2017-11-28T00:34:53.704Z,52.80
2017-11-28T00:35:53.688Z,52.80
2017-11-28T00:36:53.679Z,52.70
2017-11-28T00:37:53.662Z,52.77
2017-11-28T00:38:53.645Z,52.32
2017-11-28T00:39:53.633Z,52.68
2017-11-28T00:40:53.623Z,52.68
2017-11-28T00:41:53.605Z,52.80
2017-11-28T00:42:53.588Z,52.77
2017-11-28T00:43:53.576Z,52.68
2017-11-28T00:44:53.562Z,52.77
2017-11-28T00:45:53.548Z,52.48
2017-11-28T00:46:53.533Z,52.87
2017-11-28T00:47:53.519Z,52.68
2017-11-28T00:48:53.504Z,52.58
2017-11-28T00:49:53.491Z,52.97
2017-11-28T00:50:53.476Z,53.35
2017-11-28T00:51:53.460Z,53.16
2017-11-28T00:52:53.447Z,53.64
2017-11-28T00:53:53.432Z,53.06
2017-11-28T00:54:53.418Z,53.16
2017-11-28T00:55:53.406Z,53.54
2017-11-28T00:56:53.390Z,53.45
2017-11-28T00:57:53.375Z,53.16
2017-11-28T00:58:53.360Z,53.35
2017-11-28T00:59:53.346Z,53.25
2017-11-28T01:00:53.333Z,53.35
2017-11-28T01:01:53.318Z,53.74
2017-11-28T01:02:53.302Z,53.35
2017-11-28T01:03:53.291Z,53.83
2017-11-28T01:04:53.275Z,53.25
2017-11-28T01:05:53.260Z,53.54
2017-11-28T01:06:53.245Z,53.35
2017-11-28T01:07:53.231Z,54.02
2017-11-28T01:08:53.217Z,53.74
2017-11-28T01:09:53.204Z,53.61
2017-11-28T01:10:53.190Z,53.90
2017-11-28T01:11:53.174Z,54.00
2017-11-28T01:12:53.158Z,53.61
2017-11-28T01:13:53.145Z,53.70
2017-11-28T01:14:53.129Z,54.09
2017-11-28T01:15:53.122Z,54.09
2017-11-28T01:16:53.100Z,54.09
2017-11-28T01:17:53.086Z,53.90
2017-11-28T01:18:53.072Z,54.19
2017-11-28T01:19:53.058Z,54.00
2017-11-28T01:20:53.043Z,54.19
2017-11-28T01:21:53.030Z,53.90
2017-11-28T01:22:53.014Z,54.00
2017-11-28T01:23:52.999Z,54.00
2017-11-28T01:24:52.985Z,53.80
2017-11-28T01:25:52.972Z,54.19
2017-11-28T01:26:52.956Z,54.38
2017-11-28T01:27:52.948Z,54.09
2017-11-28T01:28:52.928Z,54.28
2017-11-28T01:29:52.913Z,54.28
2017-11-28T01:30:52.897Z,54.38
2017-11-28T01:31:52.885Z,54.19
2017-11-28T01:32:52.869Z,54.09
2017-11-28T01:33:52.855Z,53.90
2017-11-28T01:34:52.842Z,53.90
2017-11-28T01:35:52.825Z,54.00
2017-11-28T01:36:52.810Z,53.90
2017-11-28T01:37:52.797Z,54.09
2017-11-28T01:38:52.783Z,54.00
2017-11-28T01:39:52.767Z,53.90
2017-11-28T01:40:52.755Z,53.70
2017-11-28T01:41:52.739Z,53.90
2017-11-28T01:42:52.727Z,53.70
2017-11-28T01:43:52.709Z,53.70
2017-11-28T01:44:52.695Z,53.80
2017-11-28T01:45:52.680Z,53.90
2017-11-28T01:46:52.665Z,54.00
2017-11-28T01:47:52.650Z,53.90
2017-11-28T01:48:52.637Z,53.70
2017-11-28T01:49:52.622Z,53.80
2017-11-28T01:50:52.607Z,54.19
2017-11-28T01:51:52.592Z,53.80
2017-11-28T01:52:52.578Z,53.70
2017-11-28T01:53:52.564Z,53.70
2017-11-28T01:54:52.549Z,53.90
2017-11-28T01:55:52.532Z,53.90
2017-11-28T01:56:52.519Z,54.09
2017-11-28T01:57:52.504Z,53.90
2017-11-28T01:58:52.489Z,54.09
2017-11-28T01:59:52.475Z,53.70
2017-11-28T02:00:52.460Z,54.28
2017-11-28T02:01:52.447Z,54.09
2017-11-28T02:02:52.433Z,54.00
2017-11-28T02:03:52.417Z,54.19
2017-11-28T02:04:52.403Z,53.90
2017-11-28T02:05:52.388Z,54.19
2017-11-28T02:06:52.372Z,54.09
2017-11-28T02:07:52.359Z,54.38
2017-11-28T02:08:52.345Z,54.28
2017-11-28T02:09:52.330Z,54.38
2017-11-28T02:10:52.315Z,53.90
2017-11-28T02:11:52.300Z,54.00
2017-11-28T02:12:52.286Z,54.19
2017-11-28T02:13:52.272Z,54.28
2017-11-28T02:14:52.262Z,54.47
2017-11-28T02:15:52.242Z,53.90
2017-11-28T02:16:52.228Z,53.90
2017-11-28T02:17:52.212Z,54.00
2017-11-28T02:18:52.197Z,54.28
2017-11-28T02:19:52.184Z,54.19
2017-11-28T02:20:52.171Z,54.09
2017-11-28T02:21:52.159Z,54.09
2017-11-28T02:22:52.139Z,54.16
2017-11-28T02:23:52.126Z,53.78
2017-11-28T02:24:52.119Z,53.90
2017-11-28T02:25:52.097Z,54.06
2017-11-28T02:26:52.083Z,54.45
2017-11-28T02:27:52.081Z,54.06
2017-11-28T02:28:52.052Z,54.57
2017-11-28T02:29:52.037Z,53.97
2017-11-28T02:30:52.022Z,54.16
2017-11-28T02:31:52.014Z,54.06
2017-11-28T02:32:51.993Z,54.06
2017-11-28T02:33:51.978Z,54.35
2017-11-28T02:34:51.965Z,54.35
2017-11-28T02:35:51.949Z,54.25
2017-11-28T02:36:51.934Z,54.25
2017-11-28T02:37:51.921Z,54.06
2017-11-28T02:38:51.986Z,54.25
2017-11-28T02:39:51.889Z,54.06
2017-11-28T02:40:51.876Z,54.06
2017-11-28T02:41:51.861Z,54.06
2017-11-28T02:42:51.846Z,54.25
2017-11-28T02:43:51.836Z,54.16
2017-11-28T02:44:51.814Z,53.87
2017-11-28T02:45:51.801Z,54.06
2017-11-28T02:46:51.794Z,53.97
2017-11-28T02:47:51.777Z,54.16
2017-11-28T02:48:51.756Z,54.35
2017-11-28T02:49:51.742Z,54.25
2017-11-28T02:50:51.728Z,54.16
2017-11-28T02:51:51.713Z,54.35
2017-11-28T02:52:51.698Z,54.06
2017-11-28T02:53:51.684Z,54.35
2017-11-28T02:54:51.694Z,54.35
2017-11-28T02:55:51.654Z,54.35
2017-11-28T02:56:51.639Z,54.35
2017-11-28T02:57:51.629Z,53.97
2017-11-28T02:58:51.609Z,54.35
2017-11-28T02:59:51.593Z,53.78
2017-11-28T03:00:51.579Z,54.35
2017-11-28T03:01:51.565Z,54.35
2017-11-28T03:02:51.549Z,54.06
2017-11-28T03:03:51.534Z,54.35
2017-11-28T03:04:51.520Z,53.97
2017-11-28T03:05:51.505Z,54.06
2017-11-28T03:06:51.489Z,54.25
2017-11-28T03:07:51.475Z,54.25
2017-11-28T03:08:51.461Z,54.74
2017-11-28T03:09:51.445Z,54.64
2017-11-28T03:10:51.430Z,54.45
2017-11-28T03:11:51.416Z,54.64
2017-11-28T03:12:51.400Z,54.74
2017-11-28T03:13:51.385Z,54.74
2017-11-28T03:14:51.369Z,54.55
2017-11-28T03:15:51.357Z,54.55
2017-11-28T03:16:51.342Z,54.45
2017-11-28T03:17:51.327Z,54.83
2017-11-28T03:18:51.311Z,54.45
2017-11-28T03:19:51.296Z,54.55
2017-11-28T03:20:51.286Z,54.55
2017-11-28T03:21:51.266Z,54.55
2017-11-28T03:22:51.250Z,54.64
2017-11-28T03:23:51.237Z,54.45
2017-11-28T03:24:51.222Z,54.74
2017-11-28T03:25:51.206Z,54.74
2017-11-28T03:26:51.192Z,54.64
2017-11-28T03:27:51.176Z,54.64
2017-11-28T03:28:51.162Z,54.45
2017-11-28T03:29:51.148Z,54.35
2017-11-28T03:30:51.142Z,54.45
2017-11-28T03:31:51.116Z,54.55
2017-11-28T03:32:51.103Z,54.25
2017-11-28T03:33:51.090Z,54.55
2017-11-28T03:34:51.072Z,54.25
2017-11-28T03:35:51.058Z,54.45
2017-11-28T03:36:51.043Z,54.45
2017-11-28T03:37:51.029Z,54.45
2017-11-28T03:38:51.017Z,54.45
2017-11-28T03:39:51.001Z,54.45
2017-11-28T03:40:50.983Z,54.64
2017-11-28T03:41:50.967Z,54.55
2017-11-28T03:42:50.952Z,54.64
2017-11-28T03:43:50.946Z,54.74
2017-11-28T03:44:50.924Z,54.64
2017-11-28T03:45:50.914Z,54.06
2017-11-28T03:46:50.894Z,54.16
2017-11-28T03:47:50.887Z,54.06
2017-11-28T03:48:50.867Z,54.16
2017-11-28T03:49:50.852Z,53.97
2017-11-28T03:50:50.836Z,54.35
2017-11-28T03:51:50.818Z,54.16
2017-11-28T03:52:50.808Z,53.97
2017-11-28T03:53:50.787Z,53.80
2017-11-28T03:54:50.772Z,53.68
2017-11-28T03:55:50.758Z,53.42
2017-11-28T03:56:50.745Z,53.42
2017-11-28T03:57:50.729Z,53.42
2017-11-28T03:58:50.713Z,53.90
2017-11-28T03:59:50.699Z,53.32
2017-11-28T04:00:50.684Z,53.32
2017-11-28T04:01:50.669Z,52.84
2017-11-28T04:02:50.652Z,52.94
2017-11-28T04:03:50.639Z,52.75
2017-11-28T04:04:50.624Z,52.84
2017-11-28T04:05:50.613Z,52.75
2017-11-28T04:06:50.593Z,52.29
2017-11-28T04:07:50.585Z,52.10
2017-11-28T04:08:50.565Z,52.58
2017-11-28T04:09:50.551Z,52.29
2017-11-28T04:10:50.535Z,52.48
2017-11-28T04:11:50.522Z,52.10
2017-11-28T04:12:50.507Z,51.91
2017-11-28T04:13:50.493Z,52.20
2017-11-28T04:14:50.478Z,52.29
2017-11-28T04:15:50.462Z,52.00
2017-11-28T04:16:50.449Z,52.00
2017-11-28T04:17:50.434Z,51.81
2017-11-28T04:18:50.418Z,51.91
2017-11-28T04:19:50.403Z,51.81
2017-11-28T04:20:50.390Z,51.72
2017-11-28T04:21:50.379Z,51.72
2017-11-28T04:22:50.361Z,51.72
2017-11-28T04:23:50.347Z,51.72
2017-11-28T04:24:50.338Z,51.72
2017-11-28T04:25:50.318Z,51.81
2017-11-28T04:26:50.301Z,51.81
2017-11-28T04:27:50.289Z,51.23
2017-11-28T04:28:50.274Z,51.91
2017-11-28T04:29:50.259Z,51.45
2017-11-28T04:30:50.245Z,51.62
2017-11-28T04:31:50.232Z,51.53
2017-11-28T04:32:50.216Z,51.81
2017-11-28T04:33:50.210Z,51.53
2017-11-28T04:34:50.187Z,51.33
2017-11-28T04:35:50.174Z,50.95
2017-11-28T04:36:50.158Z,51.04
2017-11-28T04:37:50.146Z,50.95
2017-11-28T04:38:50.130Z,51.04
2017-11-28T04:39:50.116Z,51.45
2017-11-28T04:40:50.102Z,51.14
2017-11-28T04:41:50.086Z,50.97
2017-11-28T04:42:50.073Z,51.33
2017-11-28T04:43:50.059Z,51.17
2017-11-28T04:44:50.045Z,51.04
2017-11-28T04:45:50.031Z,51.17
2017-11-28T04:46:50.016Z,50.97
2017-11-28T04:47:50.001Z,51.17
2017-11-28T04:48:49.987Z,50.87
2017-11-28T04:49:49.973Z,50.78
2017-11-28T04:50:49.959Z,50.76
2017-11-28T04:51:49.945Z,50.87
2017-11-28T04:52:49.931Z,50.78
2017-11-28T04:53:49.916Z,50.87
2017-11-28T04:54:49.901Z,50.87
2017-11-28T04:55:49.887Z,50.68
2017-11-28T04:56:49.874Z,50.78
2017-11-28T04:57:49.865Z,50.78
2017-11-28T04:58:49.846Z,50.78
2017-11-28T04:59:49.832Z,50.68
2017-11-28T05:00:49.816Z,50.68
2017-11-28T05:01:49.802Z,50.68
2017-11-28T05:02:49.788Z,50.30
2017-11-28T05:03:49.783Z,50.20
2017-11-28T05:04:49.759Z,50.40
2017-11-28T05:05:49.746Z,50.78
2017-11-28T05:06:49.732Z,50.59
2017-11-28T05:07:49.718Z,50.59
2017-11-28T05:08:49.703Z,50.68
2017-11-28T05:09:49.696Z,50.30
2017-11-28T05:10:49.681Z,50.68
2017-11-28T05:11:49.662Z,50.20
2017-11-28T05:12:49.650Z,50.40
2017-11-28T05:13:49.634Z,50.30
2017-11-28T05:14:49.620Z,50.40
2017-11-28T05:15:49.608Z,50.59
2017-11-28T05:16:49.591Z,50.68
2017-11-28T05:17:49.578Z,50.78
2017-11-28T05:18:49.564Z,50.59
2017-11-28T05:19:49.549Z,50.68
2017-11-28T05:20:49.536Z,50.49
2017-11-28T05:21:49.526Z,50.97
2017-11-28T05:22:49.506Z,51.26
2017-11-28T05:23:49.493Z,51.93
2017-11-28T05:24:49.478Z,51.74
2017-11-28T05:25:49.464Z,51.84
2017-11-28T05:26:49.449Z,51.64
2017-11-28T05:27:49.437Z,51.74
2017-11-28T05:28:49.422Z,51.64
2017-11-28T05:29:49.409Z,51.93
2017-11-28T05:30:49.393Z,52.42
2017-11-28T05:31:49.380Z,52.32
2017-11-28T05:32:49.366Z,51.74
2017-11-28T05:33:49.367Z,52.22
2017-11-28T05:34:49.335Z,52.32
2017-11-28T05:35:49.323Z,52.42
2017-11-28T05:36:49.308Z,52.42
2017-11-28T05:37:49.298Z,52.42
2017-11-28T05:38:49.282Z,52.51
2017-11-28T05:39:49.266Z,52.51
2017-11-28T05:40:49.253Z,52.80
2017-11-28T05:41:49.246Z,52.61
2017-11-28T05:42:49.224Z,52.42
2017-11-28T05:43:49.211Z,52.61
2017-11-28T05:44:49.197Z,52.51
2017-11-28T05:45:49.182Z,52.89
2017-11-28T05:46:49.168Z,52.89
2017-11-28T05:47:49.153Z,52.80
2017-11-28T05:48:49.149Z,53.28
2017-11-28T05:49:49.128Z,53.19
2017-11-28T05:50:49.115Z,53.47
2017-11-28T05:51:49.098Z,53.57
2017-11-28T05:52:49.085Z,53.66
2017-11-28T05:53:49.069Z,53.57
2017-11-28T05:54:49.054Z,53.57
2017-11-28T05:55:49.041Z,53.09
2017-11-28T05:56:49.027Z,53.28
2017-11-28T05:57:49.014Z,53.38
2017-11-28T05:58:49.002Z,53.28
2017-11-28T05:59:48.984Z,53.76
2017-11-28T06:00:48.973Z,53.76
2017-11-28T06:01:48.957Z,53.28
2017-11-28T06:02:48.942Z,53.86
2017-11-28T06:03:48.939Z,53.66
2017-11-28T06:04:48.915Z,53.96
2017-11-28T06:05:48.902Z,53.28
2017-11-28T06:06:48.893Z,53.76
2017-11-28T06:07:48.874Z,53.66
2017-11-28T06:08:48.859Z,53.86
2017-11-28T06:09:48.848Z,53.76
2017-11-28T06:10:48.830Z,53.86
2017-11-28T06:11:48.821Z,53.78
2017-11-28T06:12:48.803Z,53.76
2017-11-28T06:13:48.790Z,53.40
2017-11-28T06:14:48.776Z,53.86
2017-11-28T06:15:48.761Z,53.31
2017-11-28T06:16:48.748Z,53.28
2017-11-28T06:17:48.734Z,53.28
2017-11-28T06:18:48.726Z,53.38
2017-11-28T06:19:48.708Z,53.28
2017-11-28T06:20:48.691Z,53.28
2017-11-28T06:21:48.678Z,53.28
2017-11-28T06:22:48.667Z,53.76
2017-11-28T06:23:48.649Z,53.38
2017-11-28T06:24:48.636Z,53.19
2017-11-28T06:25:48.624Z,53.38
2017-11-28T06:26:48.606Z,53.76
2017-11-28T06:27:48.595Z,53.38
2017-11-28T06:28:48.583Z,53.28
2017-11-28T06:29:48.565Z,53.28
2017-11-28T06:30:48.552Z,53.86
2017-11-28T06:31:48.539Z,53.28
2017-11-28T06:32:48.523Z,53.38
2017-11-28T06:33:48.510Z,53.76
2017-11-28T06:34:48.495Z,53.76
2017-11-28T06:35:48.481Z,53.86
2017-11-28T06:36:48.467Z,53.76
2017-11-28T06:37:48.454Z,53.76
2017-11-28T06:38:48.443Z,53.76
2017-11-28T06:39:48.436Z,53.76
2017-11-28T06:40:48.412Z,53.28
2017-11-28T06:41:48.399Z,53.86
2017-11-28T06:42:48.386Z,53.38
2017-11-28T06:43:48.373Z,53.38
2017-11-28T06:44:48.357Z,53.47
2017-11-28T06:45:48.345Z,53.47
2017-11-28T06:46:48.330Z,53.66
2017-11-28T06:47:48.314Z,53.66
2017-11-28T06:48:48.302Z,53.86
2017-11-28T06:49:48.288Z,53.66
2017-11-28T06:50:48.272Z,53.66
2017-11-28T06:51:48.259Z,53.38
2017-11-28T06:52:48.245Z,53.57
2017-11-28T06:53:48.232Z,53.38
2017-11-28T06:54:48.217Z,53.76
2017-11-28T06:55:48.204Z,53.86
2017-11-28T06:56:48.190Z,53.76
2017-11-28T06:57:48.176Z,53.86
2017-11-28T06:58:48.162Z,53.96
2017-11-28T06:59:48.147Z,54.05
2017-11-28T07:00:48.134Z,54.24
2017-11-28T07:01:48.120Z,54.34
2017-11-28T07:02:48.105Z,54.34
2017-11-28T07:03:48.096Z,54.05
2017-11-28T07:04:48.078Z,54.14
2017-11-28T07:05:48.065Z,54.43
2017-11-28T07:06:48.050Z,54.24
2017-11-28T07:07:48.035Z,54.05
2017-11-28T07:08:48.021Z,54.05
2017-11-28T07:09:48.008Z,54.43
2017-11-28T07:10:47.994Z,54.05
2017-11-28T07:11:47.979Z,54.24
2017-11-28T07:12:47.965Z,54.14
2017-11-28T07:13:47.955Z,54.24
2017-11-28T07:14:47.953Z,54.24
2017-11-28T07:15:47.923Z,53.86
2017-11-28T07:16:47.910Z,54.14
2017-11-28T07:17:47.897Z,54.05
2017-11-28T07:18:47.882Z,54.05
2017-11-28T07:19:47.868Z,54.53
2017-11-28T07:20:47.853Z,54.14
2017-11-28T07:21:47.839Z,54.24
2017-11-28T07:22:47.824Z,54.14
2017-11-28T07:23:47.812Z,54.24
2017-11-28T07:24:47.797Z,54.24
2017-11-28T07:25:47.784Z,54.14
2017-11-28T07:26:47.770Z,54.05
2017-11-28T07:27:47.755Z,54.14
2017-11-28T07:28:47.742Z,54.53
2017-11-28T07:29:47.728Z,54.14
2017-11-28T07:30:47.718Z,54.14
2017-11-28T07:31:47.699Z,54.05
2017-11-28T07:32:47.685Z,54.14
2017-11-28T07:33:47.673Z,53.86
2017-11-28T07:34:47.656Z,54.05
2017-11-28T07:35:47.643Z,54.24
2017-11-28T07:36:47.630Z,54.14
2017-11-28T07:37:47.615Z,54.05
2017-11-28T07:38:47.599Z,54.14
2017-11-28T07:39:47.587Z,54.34
2017-11-28T07:40:47.574Z,54.24
2017-11-28T07:41:47.559Z,53.76
2017-11-28T07:42:47.544Z,53.96
2017-11-28T07:43:47.531Z,54.14
2017-11-28T07:44:47.529Z,53.96
2017-11-28T07:45:47.507Z,53.76
2017-11-28T07:46:47.495Z,53.86
2017-11-28T07:47:47.475Z,53.38
2017-11-28T07:48:47.460Z,53.47
2017-11-28T07:49:47.447Z,53.88
2017-11-28T07:50:47.433Z,53.78
2017-11-28T07:51:47.418Z,53.19
2017-11-28T07:52:47.405Z,53.59
2017-11-28T07:53:47.391Z,53.47
2017-11-28T07:54:47.377Z,53.21
2017-11-28T07:55:47.363Z,53.21
2017-11-28T07:56:47.352Z,53.11
2017-11-28T07:57:47.353Z,53.02
2017-11-28T07:58:47.321Z,52.83
2017-11-28T07:59:47.308Z,52.63
2017-11-28T08:00:47.294Z,52.44
2017-11-28T08:01:47.279Z,52.54
2017-11-28T08:02:47.265Z,52.63
2017-11-28T08:03:47.251Z,52.34
2017-11-28T08:04:47.239Z,52.06
2017-11-28T08:05:47.224Z,52.44
2017-11-28T08:06:47.213Z,52.63
2017-11-28T08:07:47.196Z,52.15
2017-11-28T08:08:47.182Z,52.44
2017-11-28T08:09:47.174Z,51.79
2017-11-28T08:10:47.155Z,51.70
2017-11-28T08:11:47.141Z,51.79
2017-11-28T08:12:47.128Z,51.60
2017-11-28T08:13:47.120Z,51.89
2017-11-28T08:14:47.124Z,51.89
2017-11-28T08:15:47.087Z,51.50
2017-11-28T08:16:47.073Z,51.02
2017-11-28T08:17:47.058Z,51.41
2017-11-28T08:18:47.044Z,50.63
2017-11-28T08:19:47.031Z,50.93
2017-11-28T08:20:47.025Z,50.73
2017-11-28T08:21:47.005Z,50.83
2017-11-28T08:22:46.990Z,50.47
2017-11-28T08:23:46.978Z,50.57
2017-11-28T08:24:46.968Z,50.63
2017-11-28T08:25:46.952Z,50.57
2017-11-28T08:26:46.936Z,50.66
2017-11-28T08:27:46.925Z,50.47
2017-11-28T08:28:46.909Z,50.47
2017-11-28T08:29:46.895Z,50.09
2017-11-28T08:30:46.885Z,49.70
2017-11-28T08:31:46.869Z,49.79
2017-11-28T08:32:46.856Z,50.37
2017-11-28T08:33:46.842Z,49.99
2017-11-28T08:34:46.828Z,49.79
2017-11-28T08:35:46.816Z,49.70
2017-11-28T08:36:46.801Z,49.79
2017-11-28T08:37:46.788Z,49.51
2017-11-28T08:38:46.774Z,49.24
2017-11-28T08:39:46.761Z,49.53
2017-11-28T08:40:46.747Z,49.82
2017-11-28T08:41:46.734Z,49.53
2017-11-28T08:42:46.720Z,49.53
2017-11-28T08:43:46.722Z,49.15
2017-11-28T08:44:46.696Z,49.63
2017-11-28T08:45:46.681Z,49.43
2017-11-28T08:46:46.668Z,49.53
2017-11-28T08:47:46.666Z,49.24
2017-11-28T08:48:46.643Z,49.73
2017-11-28T08:49:46.629Z,49.43
2017-11-28T08:50:46.614Z,49.82
2017-11-28T08:51:46.602Z,49.05
2017-11-28T08:52:46.592Z,49.15
2017-11-28T08:53:46.576Z,49.82
2017-11-28T08:54:46.563Z,49.24
2017-11-28T08:55:46.549Z,49.15
2017-11-28T08:56:46.537Z,49.05
2017-11-28T08:57:46.523Z,49.82
2017-11-28T08:58:46.510Z,49.24
2017-11-28T08:59:46.496Z,49.53
2017-11-28T09:00:46.484Z,49.24
2017-11-28T09:01:46.471Z,49.34
2017-11-28T09:02:46.456Z,48.95
2017-11-28T09:03:46.444Z,48.76
2017-11-28T09:04:46.432Z,48.59
2017-11-28T09:05:46.418Z,48.59
2017-11-28T09:06:46.404Z,48.59
2017-11-28T09:07:46.394Z,48.40
2017-11-28T09:08:46.378Z,48.21
2017-11-28T09:09:46.365Z,47.82
2017-11-28T09:10:46.353Z,48.11
2017-11-28T09:11:46.340Z,48.49
2017-11-28T09:12:46.326Z,48.01
2017-11-28T09:13:46.314Z,47.92
2017-11-28T09:14:46.299Z,48.40
2017-11-28T09:15:46.289Z,48.30
2017-11-28T09:16:46.274Z,47.92
2017-11-28T09:17:46.262Z,48.01
2017-11-28T09:18:46.248Z,47.92
2017-11-28T09:19:46.236Z,48.01
2017-11-28T09:20:46.224Z,48.11
2017-11-28T09:21:46.211Z,48.01
2017-11-28T09:22:46.196Z,48.11
2017-11-28T09:23:46.183Z,48.30
2017-11-28T09:24:46.172Z,48.01
2017-11-28T09:25:46.159Z,48.21
2017-11-28T09:26:46.145Z,48.21
2017-11-28T09:27:46.132Z,48.18
2017-11-28T09:28:46.119Z,48.18
2017-11-28T09:29:46.107Z,48.40
2017-11-28T09:30:46.092Z,48.30
2017-11-28T09:31:46.081Z,48.38
2017-11-28T09:32:46.070Z,47.89
2017-11-28T09:33:46.055Z,48.47
2017-11-28T09:34:46.041Z,48.57
2017-11-28T09:35:46.028Z,48.47
2017-11-28T09:36:46.015Z,48.57
2017-11-28T09:37:46.002Z,48.18
2017-11-28T09:38:45.988Z,48.66
2017-11-28T09:39:45.976Z,48.66
2017-11-28T09:40:45.968Z,48.86
2017-11-28T09:41:45.951Z,48.66
2017-11-28T09:42:45.937Z,49.05
2017-11-28T09:43:45.925Z,48.86
2017-11-28T09:44:45.911Z,49.05
2017-11-28T09:45:45.898Z,48.95
2017-11-28T09:46:45.884Z,48.76
2017-11-28T09:47:45.873Z,49.02
2017-11-28T09:48:45.859Z,48.64
2017-11-28T09:49:45.846Z,48.83
2017-11-28T09:50:45.832Z,48.66
2017-11-28T09:51:45.820Z,48.74
2017-11-28T09:52:45.813Z,48.76
2017-11-28T09:53:45.793Z,48.57
2017-11-28T09:54:45.780Z,48.18
2017-11-28T09:55:45.770Z,48.28
2017-11-28T09:56:45.754Z,47.92
2017-11-28T09:57:45.741Z,48.30
2017-11-28T09:58:45.726Z,47.82
2017-11-28T09:59:45.715Z,47.24
2017-11-28T10:00:45.702Z,47.63
2017-11-28T10:01:45.690Z,46.97
2017-11-28T10:02:45.676Z,46.88
2017-11-28T10:03:45.662Z,46.78
2017-11-28T10:04:45.649Z,46.78
2017-11-28T10:05:45.636Z,46.78
2017-11-28T10:06:45.622Z,47.07
2017-11-28T10:07:45.610Z,46.69
2017-11-28T10:08:45.602Z,46.30
2017-11-28T10:09:45.585Z,46.40
2017-11-28T10:10:45.571Z,46.40
2017-11-28T10:11:45.560Z,46.59
2017-11-28T10:12:45.547Z,46.11
2017-11-28T10:13:45.534Z,46.49
2017-11-28T10:14:45.522Z,46.33
2017-11-28T10:15:45.513Z,45.94
2017-11-28T10:16:45.496Z,45.94
2017-11-28T10:17:45.484Z,46.03
2017-11-28T10:18:45.470Z,46.23
2017-11-28T10:19:45.457Z,46.23
2017-11-28T10:20:45.446Z,46.13
2017-11-28T10:21:45.435Z,46.03
2017-11-28T10:22:45.420Z,46.03
2017-11-28T10:23:45.409Z,45.94
2017-11-28T10:24:45.400Z,46.23
2017-11-28T10:25:45.385Z,45.84
2017-11-28T10:26:45.371Z,46.03
2017-11-28T10:27:45.362Z,46.23
2017-11-28T10:28:45.355Z,46.23
2017-11-28T10:29:45.336Z,46.40
2017-11-28T10:30:45.322Z,46.40
2017-11-28T10:31:45.311Z,46.40
2017-11-28T10:32:45.297Z,46.40
2017-11-28T10:33:45.285Z,46.49
2017-11-28T10:34:45.281Z,46.42
2017-11-28T10:35:45.259Z,46.33
2017-11-28T10:36:45.248Z,46.13
2017-11-28T10:37:45.235Z,45.94
2017-11-28T10:38:45.223Z,45.94
2017-11-28T10:39:45.211Z,45.94
2017-11-28T10:40:45.198Z,46.03
2017-11-28T10:41:45.186Z,45.26
2017-11-28T10:42:45.171Z,45.75
2017-11-28T10:43:45.160Z,45.45
2017-11-28T10:44:45.148Z,45.00
2017-11-28T10:45:45.137Z,44.90
2017-11-28T10:46:45.122Z,44.60
2017-11-28T10:47:45.111Z,44.80
2017-11-28T10:48:45.100Z,44.60
2017-11-28T10:49:45.087Z,44.51
2017-11-28T10:50:45.075Z,44.60
2017-11-28T10:51:45.062Z,44.51
2017-11-28T10:52:45.050Z,44.80
2017-11-28T10:53:45.039Z,44.80
2017-11-28T10:54:45.025Z,44.90
2017-11-28T10:55:45.013Z,44.92
2017-11-28T10:56:45.004Z,44.05
2017-11-28T10:57:44.990Z,44.15
2017-11-28T10:58:44.977Z,44.05
2017-11-28T10:59:44.966Z,43.76
2017-11-28T11:00:44.953Z,44.05
2017-11-28T11:01:44.945Z,43.85
2017-11-28T11:02:44.931Z,43.76
2017-11-28T11:03:44.918Z,43.49
2017-11-28T11:04:44.905Z,43.49
2017-11-28T11:05:44.895Z,43.78
2017-11-28T11:06:44.884Z,43.59
2017-11-28T11:07:44.872Z,43.76
2017-11-28T11:08:44.859Z,43.85
2017-11-28T11:09:44.849Z,43.76
2017-11-28T11:10:44.842Z,43.68
2017-11-28T11:11:44.824Z,43.78
2017-11-28T11:12:44.813Z,43.78
2017-11-28T11:13:44.803Z,43.78
2017-11-28T11:14:44.789Z,43.49
2017-11-28T11:15:44.777Z,43.30
2017-11-28T11:16:44.768Z,43.10
2017-11-28T11:17:44.755Z,43.10
2017-11-28T11:18:44.745Z,43.01
2017-11-28T11:19:44.732Z,44.17
2017-11-28T11:20:44.719Z,43.85
2017-11-28T11:21:44.713Z,43.76
2017-11-28T11:22:44.696Z,43.76
2017-11-28T11:23:44.684Z,43.76
2017-11-28T11:24:44.675Z,43.68
2017-11-28T11:25:44.663Z,43.88
2017-11-28T11:26:44.649Z,43.40
2017-11-28T11:27:44.644Z,42.82
2017-11-28T11:28:44.633Z,43.10
2017-11-28T11:29:44.625Z,43.10
2017-11-28T11:30:44.604Z,43.23
2017-11-28T11:31:44.596Z,42.93
2017-11-28T11:32:44.581Z,42.82
2017-11-28T11:33:44.570Z,42.83
2017-11-28T11:34:44.557Z,42.55
2017-11-28T11:35:44.546Z,42.65
2017-11-28T11:36:44.535Z,42.74
2017-11-28T11:37:44.524Z,42.45
2017-11-28T11:38:44.513Z,42.55
2017-11-28T11:39:44.500Z,42.45
2017-11-28T11:40:44.496Z,42.55
2017-11-28T11:41:44.479Z,42.35
2017-11-28T11:42:44.471Z,42.37
2017-11-28T11:43:44.456Z,42.28
2017-11-28T11:44:44.444Z,42.35
2017-11-28T11:45:44.434Z,42.35
2017-11-28T11:46:44.423Z,42.35
2017-11-28T11:47:44.411Z,42.25
2017-11-28T11:48:44.401Z,42.25
2017-11-28T11:49:44.390Z,42.35
2017-11-28T11:50:44.378Z,42.25
2017-11-28T11:51:44.366Z,42.07
2017-11-28T11:52:44.356Z,42.35
2017-11-28T11:53:44.345Z,42.35
2017-11-28T11:54:44.333Z,42.07
2017-11-28T11:55:44.325Z,41.99
2017-11-28T11:56:44.312Z,41.87
2017-11-28T11:57:44.302Z,41.89
2017-11-28T11:58:44.288Z,41.99
2017-11-28T11:59:44.281Z,41.70
2017-11-28T12:00:44.269Z,41.97
2017-11-28T12:01:44.255Z,41.77
2017-11-28T12:02:44.245Z,41.99
2017-11-28T12:03:44.232Z,41.97
2017-11-28T12:04:44.222Z,41.97
2017-11-28T12:05:44.212Z,41.97
2017-11-28T12:06:44.202Z,42.16
2017-11-28T12:07:44.192Z,42.07
2017-11-28T12:08:44.179Z,42.07
2017-11-28T12:09:44.167Z,41.87
2017-11-28T12:10:44.155Z,41.97
2017-11-28T12:11:44.147Z,41.87
2017-11-28T12:12:44.135Z,42.16
2017-11-28T12:13:44.123Z,42.07
2017-11-28T12:14:44.113Z,42.25
2017-11-28T12:15:44.100Z,42.07
2017-11-28T12:16:44.090Z,42.35
2017-11-28T12:17:44.079Z,42.16
2017-11-28T12:18:44.066Z,42.16
2017-11-28T12:19:44.055Z,42.35
2017-11-28T12:20:44.046Z,42.07
2017-11-28T12:21:44.034Z,42.25
2017-11-28T12:22:44.023Z,42.25
2017-11-28T12:23:44.016Z,42.45
2017-11-28T12:24:44.000Z,42.35
2017-11-28T12:25:43.990Z,42.45
2017-11-28T12:26:43.985Z,42.35
2017-11-28T12:27:43.967Z,42.25
2017-11-28T12:28:43.955Z,42.25
2017-11-28T12:29:43.945Z,42.35
2017-11-28T12:30:43.934Z,42.35
2017-11-28T12:31:43.921Z,42.35
2017-11-28T12:32:43.919Z,42.16
2017-11-28T12:33:43.899Z,42.35
2017-11-28T12:34:43.894Z,42.55
2017-11-28T12:35:43.877Z,42.35
2017-11-28T12:36:43.864Z,42.07
2017-11-28T12:37:43.856Z,42.07
2017-11-28T12:38:43.843Z,41.87
2017-11-28T12:39:43.831Z,42.16
2017-11-28T12:40:43.821Z,42.07
2017-11-28T12:41:43.809Z,41.87
2017-11-28T12:42:43.798Z,41.97
2017-11-28T12:43:43.794Z,42.16
2017-11-28T12:44:43.776Z,42.35
2017-11-28T12:45:43.764Z,42.35
2017-11-28T12:46:43.754Z,42.25
2017-11-28T12:47:43.747Z,42.25
2017-11-28T12:48:43.733Z,42.35
2017-11-28T12:49:43.722Z,42.35
2017-11-28T12:50:43.709Z,42.35
2017-11-28T12:51:43.697Z,42.52
2017-11-28T12:52:43.687Z,42.14